Time;durP1;ratioP1;P1;durP2;ratioP2;P2;SDS_P1;SDS_P2;PMS_P1;PMS_P2;Temp;Humidity;BMP_temperature;BMP_pressure;BME280_temperature;BME280_humidity;BME280_pressure;Samples;Min_cycle;Max_cycle;Signal;HPM_P1;HPM_P2
2023/03/09 00:01:53;;;;;;;37.20;12.98;;;;;;;-148.88;100.00;75096.81;4995926;28;20041;-84
2023/03/09 00:04:18;;;;;;;38.55;14.32;;;;;;;-148.88;100.00;75098.84;4996008;28;20021;-85
2023/03/09 00:06:44;;;;;;;38.70;13.60;;;;;;;-148.88;100.00;75090.72;5013022;28;20053;-83
2023/03/09 00:09:10;;;;;;;37.63;13.43;;;;;;;-148.88;100.00;75072.47;5012645;28;20091;-83
2023/03/09 00:11:35;;;;;;;38.95;13.70;;;;;;;-148.88;100.00;75064.34;5012337;28;20434;-83
2023/03/09 00:14:01;;;;;;;46.63;15.80;;;;;;;-148.88;100.00;75074.50;4994729;28;20132;-83
2023/03/09 00:16:29;;;;;;;34.63;13.48;;;;;;;-148.88;100.00;75066.38;4994911;28;20105;-83
2023/03/09 00:18:57;;;;;;;46.55;15.35;;;;;;;-148.88;100.00;75062.31;4994914;28;20088;-83
2023/03/09 00:21:34;;;;;;;39.75;14.10;;;;;;;-148.88;100.00;75098.84;4996432;28;20507;-84
2023/03/09 00:24:16;;;;;;;40.10;14.02;;;;;;;-148.88;100.00;75064.34;5014091;28;20026;-84
2023/03/09 00:26:46;;;;;;;38.25;12.30;;;;;;;-148.88;99.46;75037.94;4998767;28;20164;-84
2023/03/09 00:29:12;;;;;;;42.83;13.65;;;;;;;-148.88;99.19;75037.94;4998328;28;20037;-84
2023/03/09 00:31:38;;;;;;;35.70;13.30;;;;;;;-148.88;98.44;75023.72;4998641;28;20023;-85
2023/03/09 00:34:04;;;;;;;38.08;12.85;;;;;;;-148.88;99.39;75052.16;5016209;28;20466;-84
2023/03/09 00:36:29;;;;;;;34.83;12.13;;;;;;;-148.88;99.18;75048.09;4998452;28;20376;-84
2023/03/09 00:38:56;;;;;;;37.47;13.95;;;;;;;-148.88;98.80;75029.81;5016054;28;20025;-84
2023/03/09 00:41:24;;;;;;;36.47;12.15;;;;;;;-148.88;99.88;75050.13;5015658;28;20025;-84
2023/03/09 00:43:49;;;;;;;32.58;12.15;;;;;;;-148.88;100.00;75060.28;5015904;28;20467;-83
2023/03/09 00:46:15;;;;;;;33.83;12.82;;;;;;;-148.88;100.00;75042.00;4997822;28;20018;-82
2023/03/09 00:48:41;;;;;;;40.30;14.15;;;;;;;-148.88;99.97;75062.31;4997755;28;20117;-84
2023/03/09 00:51:07;;;;;;;38.20;13.00;;;;;;;-148.88;100.00;75068.41;4997903;28;20144;-83
2023/03/09 00:53:33;;;;;;;36.92;14.07;;;;;;;-148.88;100.00;75072.47;5015439;28;20022;-83
2023/03/09 00:56:03;;;;;;;35.53;12.75;;;;;;;-148.88;100.00;75052.16;4998003;28;20048;-82
2023/03/09 00:58:29;;;;;;;37.97;13.50;;;;;;;-148.88;100.00;75054.19;4997370;28;20030;-83
2023/03/09 01:00:54;;;;;;;35.45;13.25;;;;;;;-148.88;100.00;75056.22;4997664;28;20029;-83
2023/03/09 01:03:19;;;;;;;39.00;14.55;;;;;;;-148.88;99.59;75066.38;4997547;28;20057;-83
2023/03/09 01:05:45;;;;;;;32.95;12.57;;;;;;;-148.88;100.00;75078.56;5015512;28;20029;-84
2023/03/09 01:08:10;;;;;;;40.72;14.07;;;;;;;-148.88;100.00;75064.34;4997693;28;20376;-83
2023/03/09 01:10:38;;;;;;;33.05;12.57;;;;;;;-148.88;100.00;75066.38;4997526;28;20021;-83
2023/03/09 01:13:03;;;;;;;38.70;13.60;;;;;;;-148.88;100.00;75054.19;5015372;28;20026;-83
2023/03/09 01:15:28;;;;;;;36.05;12.43;;;;;;;-148.88;100.00;75048.09;4997957;28;20033;-83
2023/03/09 01:17:54;;;;;;;36.90;13.48;;;;;;;-148.88;100.00;75094.81;4997448;28;20029;-83
2023/03/09 01:20:19;;;;;;;33.95;12.82;;;;;;;-148.88;99.50;75046.06;4997554;28;20056;-83
2023/03/09 01:22:44;;;;;;;34.33;11.75;;;;;;;-148.88;99.13;75044.03;5016752;28;20041;-84
2023/03/09 01:25:09;;;;;;;35.53;13.57;;;;;;;-148.88;98.82;75062.31;4999368;28;20049;-84
2023/03/09 01:27:35;;;;;;;42.67;14.13;;;;;;;-148.88;99.86;75074.50;4997463;28;20029;-82
2023/03/09 01:30:00;;;;;;;34.05;12.55;;;;;;;-148.88;99.41;75070.44;5014748;28;20057;-84
2023/03/09 01:32:25;;;;;;;36.75;13.00;;;;;;;-148.88;98.53;75029.81;5014945;28;20391;-83
2023/03/09 01:34:51;;;;;;;31.35;12.50;;;;;;;-148.88;99.26;75070.44;5014346;28;20037;-83
2023/03/09 01:37:16;;;;;;;31.10;11.23;;;;;;;-148.88;98.81;75033.88;5014383;28;20520;-84
2023/03/09 01:39:42;;;;;;;32.10;11.68;;;;;;;-148.88;99.59;75062.31;5015024;28;20032;-84
2023/03/09 01:42:08;;;;;;;34.67;13.55;;;;;;;-148.88;99.39;75078.56;5014676;28;20026;-84
2023/03/09 01:44:33;;;;;;;41.88;13.93;;;;;;;-148.88;99.29;75058.25;4996819;28;20018;-83
2023/03/09 01:46:58;;;;;;;37.72;13.63;;;;;;;-148.88;99.80;75070.44;5014595;28;20343;-83
2023/03/09 01:49:34;;;;;;;33.17;13.00;;;;;;;-148.88;100.00;75060.28;5014652;28;20021;-84
2023/03/09 01:52:18;;;;;;;36.55;13.98;;;;;;;-148.88;99.53;75042.00;5014522;28;20437;-83
2023/03/09 01:54:51;;;;;;;33.90;12.40;;;;;;;-148.88;99.22;75056.22;4997171;28;20026;-84
2023/03/09 01:57:26;;;;;;;43.40;15.38;;;;;;;-148.88;98.50;75042.00;5014333;28;20044;-84
2023/03/09 01:59:55;;;;;;;31.35;12.82;;;;;;;-148.88;99.25;75042.00;4996561;28;20033;-83
2023/03/09 02:02:24;;;;;;;33.53;12.63;;;;;;;-148.88;99.71;75054.19;5014400;28;20029;-83
2023/03/09 02:04:55;;;;;;;34.05;12.50;;;;;;;-148.88;99.81;75062.31;5013978;28;20025;-84
2023/03/09 02:07:22;;;;;;;35.33;12.93;;;;;;;-148.88;99.69;75068.41;5014132;28;20033;-83
2023/03/09 02:09:59;;;;;;;33.58;13.05;;;;;;;-148.88;100.00;75068.41;5014157;28;20389;-83
2023/03/09 02:12:25;;;;;;;32.95;12.48;;;;;;;-148.88;99.75;75064.34;5013978;28;20048;-84
2023/03/09 02:14:51;;;;;;;33.70;13.38;;;;;;;-148.88;100.00;75066.38;5014178;28;20523;-84
2023/03/09 02:17:17;;;;;;;33.78;13.02;;;;;;;-148.88;100.00;75076.53;5014132;28;20036;-84
2023/03/09 02:19:50;;;;;;;32.22;12.13;;;;;;;-148.88;100.00;75080.59;4996189;28;20025;-83
2023/03/09 02:22:15;;;;;;;33.53;12.73;;;;;;;-148.88;100.00;75106.97;4996822;28;20068;-85
2023/03/09 02:24:49;;;;;;;36.17;12.63;;;;;;;-148.88;100.00;75119.16;4996318;28;20046;-84
2023/03/09 02:27:23;;;;;;;34.15;12.82;;;;;;;-148.88;100.00;75058.25;4996170;28;20423;-84
2023/03/09 02:29:49;;;;;;;32.85;12.93;;;;;;;-148.88;100.00;75066.38;4996099;28;20121;-84
2023/03/09 02:32:15;;;;;;;30.83;11.80;;;;;;;-148.88;99.62;75062.31;4997656;28;20045;-85
2023/03/09 02:34:40;;;;;;;33.67;13.43;;;;;;;-148.88;100.00;75094.81;4995961;28;20387;-85
2023/03/09 02:37:36;;;;;;;35.40;13.60;;;;;;;-148.88;100.00;75098.84;5014223;28;20026;-85
2023/03/09 02:40:11;;;;;;;31.20;11.63;;;;;;;-148.88;100.00;75086.69;4995972;28;20104;-84
2023/03/09 02:42:38;;;;;;;33.88;13.10;;;;;;;-148.88;100.00;75086.69;4998732;28;20383;-85
2023/03/09 02:45:05;;;;;;;34.17;13.25;;;;;;;-148.88;100.00;75094.81;5015587;28;20369;-84
2023/03/09 02:47:30;;;;;;;35.63;13.40;;;;;;;-148.88;99.88;75106.97;4996077;28;20018;-85
2023/03/09 02:49:56;;;;;;;30.00;12.02;;;;;;;-148.88;99.57;75086.69;4996327;28;20072;-85
2023/03/09 02:52:21;;;;;;;26.00;10.55;;;;;;;-148.88;98.66;75074.50;4995900;28;20032;-85
2023/03/09 02:54:46;;;;;;;29.55;12.93;;;;;;;-148.88;99.50;75076.53;4995924;28;20088;-85
2023/03/09 02:57:12;;;;;;;27.23;10.32;;;;;;;-148.88;100.00;75088.72;4996498;28;20372;-86
2023/03/09 02:59:37;;;;;;;28.17;10.20;;;;;;;-148.88;99.58;75092.78;4995617;28;20100;-85
2023/03/09 03:02:03;;;;;;;29.05;10.75;;;;;;;-148.88;99.74;75106.97;4995932;28;20495;-84
2023/03/09 03:04:28;;;;;;;30.20;11.52;;;;;;;-148.88;99.81;75119.16;4995883;28;20116;-85
2023/03/09 03:06:53;;;;;;;29.33;10.98;;;;;;;-148.88;99.02;75092.78;5013445;28;20460;-85
2023/03/09 03:09:18;;;;;;;30.55;10.77;;;;;;;-148.88;99.29;75090.72;5013404;28;20030;-85
2023/03/09 03:11:44;;;;;;;34.63;13.57;;;;;;;-148.88;99.39;75090.72;5013050;28;20452;-85
2023/03/09 03:14:09;;;;;;;30.35;11.20;;;;;;;-148.88;98.56;75068.41;5013322;28;20022;-86
2023/03/09 03:16:34;;;;;;;25.95;9.75;;;;;;;-148.88;98.24;75082.63;5013113;28;20480;-84
2023/03/09 03:19:00;;;;;;;28.00;10.48;;;;;;;-148.88;99.17;75100.88;5012983;28;20079;-84
2023/03/09 03:21:25;;;;;;;26.63;10.75;;;;;;;-148.88;98.55;75078.56;4995478;28;20391;-85
2023/03/09 03:23:50;;;;;;;28.63;10.70;;;;;;;-148.88;98.38;75092.78;5013026;28;20495;-85
2023/03/09 03:26:16;;;;;;;26.08;9.90;;;;;;;-148.88;98.13;75078.56;5012918;28;20030;-84
2023/03/09 03:28:41;;;;;;;32.00;11.25;;;;;;;-148.88;98.89;75123.22;5012872;28;20029;-85
2023/03/09 03:31:07;;;;;;;28.98;10.02;;;;;;;-148.88;99.00;75125.25;5013070;28;20022;-85
2023/03/09 03:33:32;;;;;;;29.85;10.45;;;;;;;-148.88;98.84;75119.16;5013071;28;20029;-86
2023/03/09 03:35:57;;;;;;;28.75;11.00;;;;;;;-148.88;97.85;75088.72;5012905;28;20022;-85
2023/03/09 03:38:23;;;;;;;29.55;10.60;;;;;;;-148.88;97.42;75115.09;5012871;28;20121;-88
2023/03/09 03:40:48;;;;;;;29.17;10.15;;;;;;;-148.88;98.22;75113.06;5013014;28;20105;-86
2023/03/09 03:43:14;;;;;;;26.17;10.32;;;;;;;-148.88;98.47;75121.19;5013107;28;20029;-89
2023/03/09 03:45:39;;;;;;;26.02;9.30;;;;;;;-148.88;97.91;75139.47;5013419;28;20022;-89
2023/03/09 03:48:05;;;;;;;26.00;10.30;;;;;;;-148.88;97.27;75113.06;5012661;28;20112;-88
2023/03/09 03:50:30;;;;;;;24.27;9.63;;;;;;;-148.88;96.44;75121.19;5012619;28;20101;-88
2023/03/09 03:52:56;;;;;;;24.13;9.30;;;;;;;-148.88;96.37;75096.81;5012917;28;20443;-86
2023/03/09 03:55:21;;;;;;;26.38;9.90;;;;;;;-148.88;96.89;75119.16;5012758;28;20030;-88
2023/03/09 03:57:46;;;;;;;24.73;9.40;;;;;;;-148.88;97.46;75123.22;5013123;28;20030;-87
2023/03/09 04:00:12;;;;;;;25.55;10.18;;;;;;;-148.88;98.32;75139.47;5016404;28;20030;-87
2023/03/09 04:02:38;;;;;;;27.48;10.27;;;;;;;-148.88;96.98;75115.09;5016887;28;20053;-87
2023/03/09 04:05:05;;;;;;;31.45;12.38;;;;;;;-148.88;97.22;75137.44;5016808;28;20025;-87
2023/03/09 04:07:30;;;;;;;26.65;10.43;;;;;;;-148.88;98.12;75157.75;5016507;28;20493;-88
2023/03/09 04:09:55;;;;;;;29.55;11.68;;;;;;;-148.88;97.15;75131.34;5016686;28;20069;-88
2023/03/09 04:12:21;;;;;;;27.45;10.07;;;;;;;-148.88;97.50;75153.69;5016830;28;20049;-86
2023/03/09 04:14:46;;;;;;;26.80;10.15;;;;;;;-148.88;97.52;75151.66;5017019;28;20026;-88
2023/03/09 04:17:11;;;;;;;28.27;9.93;;;;;;;-148.88;97.10;75143.53;5017580;28;20365;-90
2023/03/09 04:19:37;;;;;;;24.52;10.23;;;;;;;-148.88;96.98;75151.66;5016513;28;20040;-89
2023/03/09 04:22:03;;;;;;;25.45;10.60;;;;;;;-148.88;97.80;75176.03;5017090;28;20464;-88
2023/03/09 04:24:28;;;;;;;28.35;10.40;;;;;;;-148.88;97.72;75176.03;5016753;28;20026;-89
2023/03/09 04:26:54;;;;;;;25.52;9.63;;;;;;;-148.88;98.61;75192.28;5016453;28;20025;-87
2023/03/09 04:29:20;;;;;;;24.52;9.32;;;;;;;-148.88;98.00;75186.19;4998617;28;20125;-87
2023/03/09 04:31:45;;;;;;;24.67;9.52;;;;;;;-148.88;97.71;75184.16;5016396;28;20029;-87
2023/03/09 04:34:11;;;;;;;25.55;10.07;;;;;;;-148.88;98.24;75200.41;5016203;28;20026;-87
2023/03/09 04:36:37;;;;;;;23.75;9.45;;;;;;;-148.88;97.97;75200.41;5016552;28;20037;-88
2023/03/09 04:39:04;;;;;;;23.00;8.95;;;;;;;-148.88;96.84;75165.88;5016369;28;20033;-89
2023/03/09 04:41:30;;;;;;;25.30;9.30;;;;;;;-148.88;96.09;75139.47;5016202;28;20025;-89
2023/03/09 04:43:55;;;;;;;27.02;10.18;;;;;;;-148.88;96.11;75155.72;4998151;28;20180;-88
2023/03/09 04:46:20;;;;;;;23.52;8.35;;;;;;;-148.88;97.49;75200.41;5016132;28;20053;-88
2023/03/09 04:48:46;;;;;;;22.73;9.90;;;;;;;-148.88;97.11;75180.09;5015913;28;20041;-88
2023/03/09 04:51:11;;;;;;;20.08;8.45;;;;;;;-148.88;96.34;75180.09;5015689;28;20033;-88
2023/03/09 04:53:36;;;;;;;22.00;8.98;;;;;;;-148.88;96.40;75188.22;5015758;28;20018;-89
2023/03/09 04:56:01;;;;;;;23.40;8.60;;;;;;;-148.88;96.03;75180.09;5015713;28;20030;-87
2023/03/09 04:58:27;;;;;;;26.58;9.43;;;;;;;-148.88;96.63;75178.06;5015552;28;20060;-88
2023/03/09 05:00:52;;;;;;;21.55;9.32;;;;;;;-148.88;97.44;75216.66;5015552;28;20105;-89
2023/03/09 05:03:17;;;;;;;21.50;9.23;;;;;;;-148.88;97.39;75200.41;5015481;28;20022;-90
2023/03/09 05:05:43;;;;;;;21.48;8.20;;;;;;;-148.88;96.85;75204.47;5015719;28;20053;-88
2023/03/09 05:08:08;;;;;;;23.17;9.55;;;;;;;-148.88;97.30;75216.66;5015543;28;20030;-88
2023/03/09 05:10:34;;;;;;;23.45;8.95;;;;;;;-148.88;97.37;75208.53;5014490;28;20026;-88
2023/03/09 05:12:59;;;;;;;24.70;9.13;;;;;;;-148.88;97.15;75216.66;5015975;28;20026;-87
2023/03/09 05:15:24;;;;;;;24.35;8.73;;;;;;;-148.88;96.98;75210.56;5015268;28;20396;-88
2023/03/09 05:17:50;;;;;;;18.85;9.30;;;;;;;-148.88;96.96;75204.47;5081352;22;20065;-80
2023/03/09 05:20:16;;;;;;;19.15;7.75;;;;;;;-148.88;95.98;75188.22;5038990;28;20021;-80
2023/03/09 05:22:44;;;;;;;23.17;9.38;;;;;;;-148.88;96.10;75218.69;5021490;28;20033;-81
2023/03/09 05:25:09;;;;;;;25.35;9.80;;;;;;;-148.88;96.00;75192.28;5021454;28;20059;-83
2023/03/09 05:27:35;;;;;;;24.23;9.70;;;;;;;-148.88;96.54;75228.84;5039566;28;20029;-84
2023/03/09 05:30:01;;;;;;;25.48;9.02;;;;;;;-148.88;96.35;75241.03;5039547;28;20081;-86
2023/03/09 05:32:26;;;;;;;22.77;9.70;;;;;;;-148.88;97.37;75222.75;5041404;28;20032;-84
2023/03/09 05:34:51;;;;;;;24.60;10.27;;;;;;;-148.88;97.02;75253.22;5022733;28;20200;-84
2023/03/09 05:37:17;;;;;;;22.70;9.85;;;;;;;-148.88;96.10;75243.06;5040007;28;20108;-87
2023/03/09 05:39:42;;;;;;;18.98;8.43;;;;;;;-148.88;96.35;75228.84;5023086;28;20032;-86
2023/03/09 05:42:07;;;;;;;24.88;10.27;;;;;;;-148.88;96.30;75257.28;5025690;28;20029;-86
2023/03/09 05:44:33;;;;;;;22.08;8.82;;;;;;;-148.88;96.92;75277.59;5042101;28;20032;-84
2023/03/09 05:46:58;;;;;;;21.52;9.80;;;;;;;-148.88;96.66;75249.16;5021461;28;20029;-83
2023/03/09 05:49:27;;;;;;;23.55;10.25;;;;;;;-148.88;96.95;75289.75;5040517;28;20060;-84
2023/03/09 05:51:53;;;;;;;24.13;9.27;;;;;;;-148.88;97.52;75283.66;5041019;28;20121;-82
2023/03/09 05:54:19;;;;;;;25.95;9.43;;;;;;;-148.88;97.84;75301.94;5039111;28;20084;-82
2023/03/09 05:56:44;;;;;;;23.10;9.48;;;;;;;-148.88;98.50;75303.97;5039678;28;20127;-82
2023/03/09 05:59:09;;;;;;;20.38;8.70;;;;;;;-148.88;97.45;75279.59;5040305;28;20033;-82
2023/03/09 06:01:35;;;;;;;20.95;8.40;;;;;;;-148.88;97.09;75271.50;5020586;28;20048;-82
2023/03/09 06:04:00;;;;;;;21.80;9.02;;;;;;;-148.88;96.43;75251.19;5039052;28;20029;-82
2023/03/09 06:06:25;;;;;;;24.70;9.68;;;;;;;-148.88;95.25;75232.91;5039573;28;20022;-82
2023/03/09 06:08:51;;;;;;;22.15;9.13;;;;;;;-148.88;95.42;75261.34;5039728;28;20033;-82
2023/03/09 06:11:16;;;;;;;28.25;9.45;;;;;;;-148.88;94.87;75228.84;5038543;28;20086;-82
2023/03/09 06:13:42;;;;;;;24.00;8.95;;;;;;;-148.88;95.09;75265.41;5038568;28;20032;-81
2023/03/09 06:16:13;;;;;;;20.27;8.65;;;;;;;-148.88;94.47;75241.03;5038484;28;20041;-81
2023/03/09 06:18:38;;;;;;;20.52;8.75;;;;;;;-148.88;94.64;75265.41;5021404;28;20036;-81
2023/03/09 06:21:06;;;;;;;23.17;9.18;;;;;;;-148.88;94.25;75241.03;5021141;28;20029;-81
2023/03/09 06:23:35;;;;;;;23.48;9.38;;;;;;;-148.88;94.29;75269.47;5020717;28;20037;-81
2023/03/09 06:26:02;;;;;;;21.58;9.02;;;;;;;-148.88;94.31;75253.22;5021051;28;20045;-81
2023/03/09 06:28:27;;;;;;;21.88;8.40;;;;;;;-148.88;94.60;75277.59;5038586;28;20064;-81
2023/03/09 06:30:53;;;;;;;22.20;9.13;;;;;;;-148.88;94.76;75277.59;5038770;28;20028;-81
2023/03/09 06:33:19;;;;;;;23.40;9.15;;;;;;;-148.88;94.32;75253.22;5038394;28;20053;-81
2023/03/09 06:35:44;;;;;;;22.63;9.43;;;;;;;-148.88;94.65;75255.25;5020387;28;20085;-81
2023/03/09 06:38:09;;;;;;;26.33;10.10;;;;;;;-148.88;94.39;75265.41;5038320;28;20026;-81
2023/03/09 06:40:35;;;;;;;25.80;10.82;;;;;;;-148.88;93.67;75247.13;5038464;28;20105;-81
2023/03/09 06:43:00;;;;;;;21.67;9.15;;;;;;;-148.88;93.38;75249.16;5038123;28;20403;-81
2023/03/09 06:45:26;;;;;;;20.13;8.77;;;;;;;-148.88;93.96;75267.44;5025353;28;20049;-81
2023/03/09 06:47:56;;;;;;;17.48;7.00;;;;;;;-148.88;94.20;75249.16;5039750;28;20029;-81
2023/03/09 06:50:23;;;;;;;22.08;9.02;;;;;;;-148.88;93.91;75241.03;5020506;28;20035;-81
2023/03/09 06:52:48;;;;;;;24.52;9.10;;;;;;;-148.88;94.67;75253.22;5038748;28;20032;-81
2023/03/09 06:55:14;;;;;;;20.88;9.05;;;;;;;-148.88;93.81;75243.06;5038745;28;20392;-80
2023/03/09 07:04:22;;;;;;;22.02;9.30;;;;;;;-148.88;94.77;75279.59;5038961;28;20083;-81
2023/03/09 07:07:37;;;;;;;23.85;9.50;;;;;;;-148.88;93.70;75257.28;5019959;28;20033;-81
2023/03/09 07:10:04;;;;;;;23.98;9.63;;;;;;;-148.88;94.11;75289.75;5037798;28;20045;-81
2023/03/09 07:12:29;;;;;;;24.33;9.95;;;;;;;-148.88;93.33;75275.56;5037015;28;20033;-81
2023/03/09 07:19:06;;;;;;;26.42;8.93;;;;;;;-148.88;93.35;75253.22;5037374;28;20032;-82
2023/03/09 07:21:31;;;;;;;25.67;9.90;;;;;;;-148.88;93.57;75273.53;5037035;28;20021;-81
2023/03/09 07:23:57;;;;;;;24.02;9.55;;;;;;;-148.88;94.34;75301.94;5019702;28;20069;-80
2023/03/09 07:26:22;;;;;;;23.80;9.63;;;;;;;-148.88;94.03;75306.00;5036992;28;20112;-79
2023/03/09 07:28:47;;;;;;;26.95;9.90;;;;;;;-148.88;93.72;75293.81;5019089;28;20026;-80
2023/03/09 07:31:47;;;;;;;28.63;10.32;;;;;;;-148.88;93.85;75261.34;5019163;28;20123;-79
2023/03/09 07:34:12;;;;;;;24.83;10.75;;;;;;;-148.88;94.83;75346.63;5036849;28;20033;-79
2023/03/09 07:36:37;;;;;;;26.42;10.10;;;;;;;-148.88;93.89;75310.06;5042951;28;20499;-81
2023/03/09 07:39:03;;;;;;;26.33;9.90;;;;;;;-148.88;93.35;75295.84;5041339;28;20049;-80
2023/03/09 07:41:28;;;;;;;28.52;10.90;;;;;;;-148.88;93.72;75301.94;5024432;28;20025;-80
2023/03/09 07:43:53;;;;;;;26.90;11.18;;;;;;;-148.88;93.61;75287.72;5037814;28;20369;-80
2023/03/09 07:46:19;;;;;;;29.45;11.52;;;;;;;-148.88;93.22;75297.88;5037270;28;20033;-80
2023/03/09 07:48:44;;;;;;;24.10;9.65;;;;;;;-148.88;93.10;75283.66;5036519;28;20021;-80
2023/03/09 07:51:11;;;;;;;27.10;11.02;;;;;;;-148.88;92.80;75293.81;5037039;28;20509;-80
2023/03/09 07:53:39;;;;;;;26.85;10.32;;;;;;;-148.88;93.44;75289.75;5037063;28;20030;-80
2023/03/09 07:56:06;;;;;;;29.42;11.35;;;;;;;-148.88;93.29;75285.69;5036765;28;20033;-80
2023/03/09 07:58:33;;;;;;;27.20;10.45;;;;;;;-148.88;93.81;75326.31;5036997;28;20091;-80
2023/03/09 08:00:59;;;;;;;29.02;12.32;;;;;;;-148.88;94.26;75328.34;5036464;28;20075;-78
2023/03/09 08:03:25;;;;;;;27.98;11.65;;;;;;;-148.88;93.55;75301.94;5019126;28;20033;-79
2023/03/09 08:05:55;;;;;;;28.13;11.43;;;;;;;-148.88;93.80;75330.38;5036272;28;20492;-79
2023/03/09 08:08:27;;;;;;;31.42;11.73;;;;;;;-148.88;93.90;75322.25;5036893;28;20029;-80
2023/03/09 08:10:53;;;;;;;36.58;13.65;;;;;;;-148.88;94.05;75322.25;5036857;28;20033;-80
2023/03/09 08:13:21;;;;;;;31.25;12.38;;;;;;;-148.88;93.90;75332.41;5037138;28;20099;-80
2023/03/09 08:15:46;;;;;;;26.70;11.10;;;;;;;-148.88;93.59;75320.22;5036968;28;20159;-79
2023/03/09 08:18:12;;;;;;;25.88;11.55;;;;;;;-148.88;93.19;75330.38;5019515;28;20025;-80
2023/03/09 08:20:37;;;;;;;29.35;13.60;;;;;;;-148.88;93.36;75320.22;5018994;28;20083;-80
2023/03/09 08:23:03;;;;;;;29.10;11.35;;;;;;;-148.88;93.45;75352.72;5037253;28;20033;-80
2023/03/09 08:25:29;;;;;;;30.13;11.07;;;;;;;-148.88;93.17;75320.22;5037422;28;20026;-80
2023/03/09 08:27:55;;;;;;;29.10;10.98;;;;;;;-148.88;93.03;75324.28;5036345;28;20442;-80
2023/03/09 08:30:21;;;;;;;28.40;11.63;;;;;;;-148.88;92.76;75326.31;5036647;28;20025;-80
2023/03/09 08:32:47;;;;;;;32.20;11.85;;;;;;;-148.88;93.33;75334.44;5037071;28;20071;-79
2023/03/09 08:35:14;;;;;;;28.13;11.10;;;;;;;-148.88;92.89;75334.44;5036984;28;20021;-80
2023/03/09 08:37:40;;;;;;;30.23;11.68;;;;;;;-148.88;93.65;75324.28;5035163;28;20037;-79
2023/03/09 08:40:06;;;;;;;29.48;11.60;;;;;;;-148.88;93.20;75328.34;5035624;28;20037;-79
2023/03/09 08:42:32;;;;;;;30.13;12.05;;;;;;;-148.88;93.24;75314.13;5018171;28;20026;-79
2023/03/09 08:44:57;;;;;;;30.05;12.18;;;;;;;-148.88;93.33;75346.63;5019763;28;20085;-80
2023/03/09 08:47:25;;;;;;;31.25;13.20;;;;;;;-148.88;93.14;75326.31;5022951;28;20025;-79
2023/03/09 08:49:50;;;;;;;28.75;11.35;;;;;;;-148.88;93.32;75371.00;5040216;28;20109;-79
2023/03/09 08:52:15;;;;;;;28.10;11.10;;;;;;;-148.88;92.74;75318.19;5040001;28;20053;-80
2023/03/09 08:54:41;;;;;;;32.58;12.15;;;;;;;-148.88;93.22;75293.81;5022316;28;20549;-80
2023/03/09 08:57:06;;;;;;;32.15;12.20;;;;;;;-148.88;93.63;75303.97;5022138;28;20447;-80
2023/03/09 08:59:32;;;;;;;28.83;10.95;;;;;;;-148.88;93.28;75299.91;5021894;28;20029;-80
2023/03/09 09:01:57;;;;;;;31.33;11.75;;;;;;;-148.88;93.57;75318.19;5039672;28;20138;-80
2023/03/09 09:04:23;;;;;;;31.35;12.55;;;;;;;-148.88;93.29;75312.09;5039847;28;20369;-80
2023/03/09 09:06:48;;;;;;;34.42;13.55;;;;;;;-148.88;94.21;75344.59;5022343;28;20029;-80
2023/03/09 09:09:14;;;;;;;31.00;13.07;;;;;;;-148.88;93.80;75330.38;5021749;28;20369;-80
2023/03/09 09:11:39;;;;;;;30.23;11.93;;;;;;;-148.88;94.24;75340.53;5025514;28;20164;-79
2023/03/09 09:14:04;;;;;;;27.88;11.80;;;;;;;-148.88;94.12;75328.34;5038910;28;20032;-81
2023/03/09 09:23:14;;;;;;;29.58;11.13;;;;;;;-148.88;93.28;75334.44;5040089;28;20033;-80
2023/03/09 09:25:39;;;;;;;30.30;11.63;;;;;;;-148.88;93.74;75344.59;5021152;28;20377;-80
2023/03/09 09:28:45;;;;;;;31.95;11.60;;;;;;;-148.88;93.71;75312.09;5021607;28;20507;-80
2023/03/09 09:31:15;;;;;;;29.42;11.20;;;;;;;-148.88;93.28;75306.00;5020787;28;20108;-80
2023/03/09 09:33:40;;;;;;;26.95;10.23;;;;;;;-148.88;92.95;75322.25;5038697;28;20060;-81
2023/03/09 09:36:10;;;;;;;29.77;11.55;;;;;;;-148.88;93.26;75375.06;5021258;28;20391;-81
2023/03/09 09:38:37;;;;;;;23.70;10.25;;;;;;;-148.88;93.05;75324.28;5038998;28;20377;-80
2023/03/09 09:41:17;;;;;;;25.85;11.10;;;;;;;-148.88;92.11;75289.75;5038843;28;20029;-79
2023/03/09 09:43:46;;;;;;;27.58;10.65;;;;;;;-148.88;91.41;75308.03;5020915;28;20192;-79
2023/03/09 09:46:15;;;;;;;25.27;10.60;;;;;;;-148.88;90.94;75299.91;5020809;28;20029;-80
2023/03/09 09:48:43;;;;;;;26.90;10.57;;;;;;;-148.88;91.22;75287.72;5021043;28;20053;-79
2023/03/09 09:51:22;;;;;;;25.63;10.75;;;;;;;-148.88;91.22;75277.59;5020293;28;20025;-79
2023/03/09 09:54:11;;;;;;;25.85;10.20;;;;;;;-148.88;90.59;75267.44;5038635;28;20036;-80
2023/03/09 09:56:52;;;;;;;24.15;10.25;;;;;;;-148.88;90.64;75249.16;5038097;28;20025;-80
2023/03/09 09:59:41;;;;;;;25.42;10.98;;;;;;;-148.88;90.29;75251.19;5021112;28;20088;-80
2023/03/09 10:02:09;;;;;;;23.33;9.77;;;;;;;-148.88;89.87;75243.06;5038538;28;20018;-80
2023/03/09 10:05:02;;;;;;;24.48;9.48;;;;;;;-148.88;89.85;75249.16;5020366;28;20089;-79
2023/03/09 10:07:28;;;;;;;27.77;10.30;;;;;;;-148.88;89.70;75251.19;5020002;28;20116;-79
2023/03/09 10:10:01;;;;;;;25.38;10.20;;;;;;;-148.88;89.64;75269.47;5020837;28;20059;-79
2023/03/09 10:12:27;;;;;;;25.92;10.18;;;;;;;-148.88;90.14;75241.03;5020852;28;20384;-79
2023/03/09 10:15:20;;;;;;;22.80;9.25;;;;;;;-148.88;88.81;75285.69;5020568;28;20021;-79
2023/03/09 10:18:02;;;;;;;27.48;9.93;;;;;;;-148.88;89.48;75241.03;5025959;28;20041;-79
2023/03/09 10:20:38;;;;;;;22.55;9.27;;;;;;;-148.88;89.68;75236.97;5020363;28;20075;-79
2023/03/09 10:23:15;;;;;;;22.48;9.23;;;;;;;-148.88;89.43;75281.66;5038594;28;20022;-78
2023/03/09 10:25:42;;;;;;;24.60;9.32;;;;;;;-148.88;89.30;75293.81;5038051;28;20022;-79
2023/03/09 10:28:17;;;;;;;26.08;9.25;;;;;;;-148.88;89.67;75265.41;5019503;28;20025;-78
2023/03/09 10:30:51;;;;;;;21.63;8.35;;;;;;;-148.88;88.83;75269.47;5037801;28;20504;-78
2023/03/09 10:33:25;;;;;;;20.08;8.57;;;;;;;-148.88;88.18;75267.44;5037784;28;20036;-78
2023/03/09 10:36:02;;;;;;;24.00;8.93;;;;;;;-148.88;88.59;75285.69;5020068;28;20033;-79
2023/03/09 10:38:29;;;;;;;25.45;9.10;;;;;;;-148.88;86.93;75277.59;5038205;28;20503;-79
2023/03/09 10:40:56;;;;;;;24.60;10.07;;;;;;;-148.88;87.13;75310.06;5020234;28;20079;-79
2023/03/09 10:43:30;;;;;;;22.83;9.38;;;;;;;-148.88;88.12;75301.94;5019961;28;20025;-80
2023/03/09 10:46:08;;;;;;;21.98;9.82;;;;;;;-148.88;88.35;75281.66;5020094;28;20099;-80
2023/03/09 10:48:34;;;;;;;21.05;9.02;;;;;;;-148.88;88.16;75265.41;5037825;28;20029;-79
2023/03/09 10:51:02;;;;;;;21.52;9.07;;;;;;;-148.88;87.79;75253.22;5019946;28;20538;-80
2023/03/09 10:53:41;;;;;;;25.33;10.80;;;;;;;-148.88;86.97;75263.38;5037693;28;20033;-79
2023/03/09 10:56:25;;;;;;;26.02;11.30;;;;;;;-148.88;88.35;75293.81;5020157;28;20021;-79
2023/03/09 10:59:03;;;;;;;25.70;10.30;;;;;;;-148.88;90.12;75334.44;5022298;28;20025;-80
2023/03/09 11:01:29;;;;;;;24.38;10.25;;;;;;;-148.88;89.24;75338.50;5022167;28;20033;-79
2023/03/09 11:03:54;;;;;;;23.52;10.13;;;;;;;-148.88;90.15;75377.09;5020472;28;20021;-79
2023/03/09 11:06:37;;;;;;;25.67;10.77;;;;;;;-148.88;91.80;75366.94;5037838;28;20083;-80
2023/03/09 11:09:05;;;;;;;24.13;10.30;;;;;;;-148.88;91.51;75350.69;5036793;28;20032;-79
2023/03/09 11:11:30;;;;;;;25.35;9.77;;;;;;;-148.88;91.41;75330.38;5020723;28;20057;-79
2023/03/09 11:13:56;;;;;;;28.23;10.95;;;;;;;-148.88;90.43;75306.00;5020008;28;20033;-78
2023/03/09 11:16:27;;;;;;;23.92;9.88;;;;;;;-148.88;91.68;75338.50;5037455;28;20035;-80
2023/03/09 11:19:08;;;;;;;28.05;10.68;;;;;;;-148.88;92.39;75346.63;5037398;28;20032;-78
2023/03/09 11:21:34;;;;;;;24.45;9.55;;;;;;;-148.88;89.58;75295.84;5020234;28;20091;-79
2023/03/09 11:24:01;;;;;;;24.75;10.32;;;;;;;-148.88;90.57;75277.59;5037665;28;20072;-80